createdAt,value
2022-10-22T00:02:24.120Z,161.68
2022-10-22T00:05:10.828Z,148.52
2022-10-22T00:07:56.226Z,154.48
2022-10-22T00:10:42.726Z,151.85
2022-10-22T00:13:28.326Z,157.07
2022-10-22T00:16:14.126Z,151.52
2022-10-22T00:18:59.989Z,165.27
2022-10-22T00:21:45.595Z,147.50
2022-10-22T00:24:31.332Z,139.30
2022-10-22T00:27:16.846Z,141.18
2022-10-22T00:30:02.837Z,139.52
2022-10-22T00:32:48.251Z,131.32
2022-10-22T00:35:33.655Z,120.10
2022-10-22T00:38:19.455Z,124.18
2022-10-22T00:41:05.009Z,123.43
2022-10-22T00:43:55.809Z,117.78
2022-10-22T00:46:41.430Z,115.45
2022-10-22T00:49:27.146Z,113.22
2022-10-22T00:52:13.808Z,107.18
2022-10-22T00:55:01.014Z,109.05
2022-10-22T00:57:47.489Z,98.13
2022-10-22T01:00:33.272Z,90.97
2022-10-22T01:03:19.171Z,99.95
2022-10-22T01:06:05.946Z,96.20
2022-10-22T01:09:25.502Z,100.07
2022-10-22T01:12:19.635Z,96.88
2022-10-22T01:15:45.821Z,86.95
2022-10-22T01:18:50.235Z,81.45
2022-10-22T01:25:08.630Z,74.43
2022-10-22T01:28:00.173Z,87.25
2022-10-22T01:30:49.222Z,79.95
2022-10-22T01:33:36.171Z,79.28
2022-10-22T01:36:22.283Z,86.88
2022-10-22T01:39:09.137Z,89.57
2022-10-22T01:41:56.654Z,86.78
2022-10-22T01:44:42.315Z,82.40
2022-10-22T01:47:47.931Z,73.80
2022-10-22T01:50:48.913Z,80.65
2022-10-22T01:53:50.134Z,74.63
2022-10-22T01:56:57.310Z,85.68
2022-10-22T01:59:52.685Z,85.95
2022-10-22T02:05:49.506Z,86.80
2022-10-22T02:08:36.480Z,80.75
2022-10-22T02:11:22.234Z,90.35
2022-10-22T02:14:09.171Z,82.00
2022-10-22T02:16:57.405Z,69.13
2022-10-22T02:19:55.122Z,83.05
2022-10-22T02:22:41.889Z,80.60
2022-10-22T02:25:32.651Z,73.85
2022-10-22T02:28:32.128Z,77.10
2022-10-22T02:31:24.577Z,76.57
2022-10-22T02:34:14.678Z,71.38
2022-10-22T02:37:02.197Z,72.63
2022-10-22T02:39:48.234Z,78.07
2022-10-22T02:42:35.177Z,75.75
2022-10-22T02:45:21.602Z,89.93
2022-10-22T02:48:07.543Z,74.65
2022-10-22T02:50:53.438Z,73.50
2022-10-22T02:53:38.910Z,78.40
2022-10-22T02:56:24.971Z,69.75
2022-10-22T02:59:10.572Z,66.43
2022-10-22T03:01:56.123Z,77.50
2022-10-22T03:04:42.158Z,66.18
2022-10-22T03:07:28.092Z,67.95
2022-10-22T03:10:13.872Z,72.95
2022-10-22T03:12:59.490Z,69.88
2022-10-22T03:15:45.218Z,76.97
2022-10-22T03:18:31.013Z,73.88
2022-10-22T03:21:25.969Z,66.35
2022-10-22T03:24:16.831Z,70.53
2022-10-22T03:27:02.544Z,63.50
2022-10-22T03:29:50.326Z,68.03
2022-10-22T03:32:35.859Z,71.15
2022-10-22T03:35:21.813Z,71.88
2022-10-22T03:38:07.212Z,77.43
2022-10-22T03:40:53.346Z,73.68
2022-10-22T03:43:40.874Z,68.68
2022-10-22T03:46:26.651Z,76.13
2022-10-22T03:49:12.353Z,72.20
2022-10-22T03:51:58.225Z,70.28
2022-10-22T03:54:44.176Z,67.55
2022-10-22T03:57:30.125Z,70.38
2022-10-22T04:00:16.130Z,73.43
2022-10-22T04:03:02.019Z,69.10
2022-10-22T04:05:47.748Z,63.38
2022-10-22T04:08:34.323Z,64.13
2022-10-22T04:11:19.822Z,71.07
2022-10-22T04:14:05.878Z,65.97
2022-10-22T04:16:51.321Z,71.85
2022-10-22T04:19:37.111Z,75.25
2022-10-22T04:22:22.728Z,70.47
2022-10-22T04:25:08.422Z,72.70
2022-10-22T04:27:53.890Z,68.47
2022-10-22T04:30:39.726Z,67.10
2022-10-22T04:33:25.584Z,71.80
2022-10-22T04:36:17.333Z,62.85
2022-10-22T04:39:04.713Z,60.38
2022-10-22T04:41:50.127Z,62.88
2022-10-22T04:44:35.751Z,66.95
2022-10-22T04:47:21.519Z,71.22
2022-10-22T04:50:07.479Z,65.68
2022-10-22T04:52:52.949Z,65.50
2022-10-22T04:55:38.707Z,61.17
2022-10-22T04:58:24.378Z,62.78
2022-10-22T05:01:24.339Z,63.88
2022-10-22T05:04:14.595Z,62.38
2022-10-22T05:07:00.088Z,62.17
2022-10-22T05:09:45.807Z,66.45
2022-10-22T05:12:31.482Z,58.90
2022-10-22T05:15:17.371Z,63.53
2022-10-22T05:18:03.106Z,64.18
2022-10-22T05:20:48.617Z,66.80
2022-10-22T05:23:34.119Z,61.70
2022-10-22T05:26:21.297Z,62.35
2022-10-22T05:29:07.884Z,64.63
2022-10-22T05:31:53.696Z,59.88
2022-10-22T05:34:39.470Z,62.38
2022-10-22T05:37:25.038Z,63.08
2022-10-22T05:40:19.536Z,54.42
2022-10-22T05:43:12.822Z,60.47
2022-10-22T05:46:03.807Z,57.35
2022-10-22T05:48:58.281Z,61.63
2022-10-22T05:51:44.317Z,65.10
2022-10-22T05:54:30.297Z,64.00
2022-10-22T05:57:15.982Z,62.10
2022-10-22T06:00:01.966Z,70.88
2022-10-22T06:02:51.238Z,58.42
2022-10-22T06:05:37.910Z,59.80
2022-10-22T06:08:23.886Z,57.50
2022-10-22T06:11:09.682Z,56.53
2022-10-22T06:13:55.268Z,52.63
2022-10-22T06:17:14.030Z,55.97
2022-10-22T06:19:59.883Z,55.22
2022-10-22T06:22:45.576Z,55.15
2022-10-22T06:25:31.039Z,58.78
2022-10-22T06:28:16.547Z,54.00
2022-10-22T06:31:05.019Z,63.20
2022-10-22T06:33:50.730Z,57.00
2022-10-22T06:36:36.628Z,57.88
2022-10-22T06:39:22.276Z,53.83
2022-10-22T06:42:08.024Z,64.40
2022-10-22T06:44:53.629Z,70.00
2022-10-22T06:47:39.800Z,66.60
2022-10-22T06:50:25.410Z,70.82
2022-10-22T06:53:11.159Z,68.05
2022-10-22T06:55:56.981Z,73.97
2022-10-22T06:58:42.547Z,66.78
2022-10-22T07:01:31.467Z,66.75
2022-10-22T07:04:17.509Z,67.55
2022-10-22T07:07:06.280Z,69.47
2022-10-22T07:09:51.911Z,59.88
2022-10-22T07:12:40.070Z,59.28
2022-10-22T07:15:25.878Z,60.53
2022-10-22T07:18:11.626Z,64.13
2022-10-22T07:20:57.481Z,60.30
2022-10-22T07:23:43.742Z,60.28
2022-10-22T07:26:32.456Z,65.18
2022-10-22T07:29:18.497Z,60.85
2022-10-22T07:32:04.278Z,56.72
2022-10-22T07:34:49.750Z,59.95
2022-10-22T07:37:35.430Z,64.47
2022-10-22T07:40:20.840Z,58.40
2022-10-22T07:43:06.898Z,51.50
2022-10-22T07:45:53.035Z,55.92
2022-10-22T07:48:39.237Z,53.55
2022-10-22T07:51:24.658Z,51.83
2022-10-22T07:54:10.199Z,55.53
2022-10-22T07:56:55.893Z,55.13
2022-10-22T07:59:41.484Z,55.45
2022-10-22T08:02:27.192Z,53.03
2022-10-22T08:05:16.538Z,54.83
2022-10-22T08:08:02.239Z,56.75
2022-10-22T08:10:50.774Z,51.20
2022-10-22T08:13:37.488Z,53.20
2022-10-22T08:16:25.360Z,51.55
2022-10-22T08:19:10.985Z,51.22
2022-10-22T08:21:56.762Z,49.97
2022-10-22T08:24:42.445Z,50.47
2022-10-22T08:27:28.129Z,54.45
2022-10-22T08:30:14.963Z,54.63
2022-10-22T08:33:00.343Z,60.22
2022-10-22T08:35:50.257Z,58.13
2022-10-22T08:38:36.022Z,53.92
2022-10-22T08:41:23.668Z,53.03
2022-10-22T08:44:31.380Z,56.33
2022-10-22T08:47:25.038Z,49.83
2022-10-22T08:50:14.909Z,49.05
2022-10-22T08:53:06.499Z,54.60
2022-10-22T08:55:54.419Z,51.15
2022-10-22T08:59:17.381Z,44.80
2022-10-22T09:02:14.622Z,54.03
2022-10-22T09:05:12.497Z,51.85
2022-10-22T09:07:58.053Z,52.47
2022-10-22T09:10:50.610Z,54.70
2022-10-22T09:13:35.867Z,59.53
2022-10-22T09:16:24.248Z,47.78
2022-10-22T09:19:18.551Z,58.15
2022-10-22T09:22:18.109Z,46.72
2022-10-22T09:25:36.822Z,51.72
2022-10-22T09:28:22.566Z,49.58
2022-10-22T09:31:13.503Z,48.80
2022-10-22T09:34:05.780Z,48.35
2022-10-22T09:36:59.599Z,45.45
2022-10-22T09:40:03.694Z,54.67
2022-10-22T09:42:50.047Z,48.75
2022-10-22T09:45:35.653Z,51.47
2022-10-22T09:48:28.440Z,52.38
2022-10-22T09:51:35.709Z,46.83
2022-10-22T09:54:33.310Z,49.75
2022-10-22T09:57:22.463Z,65.20
2022-10-22T10:00:12.463Z,47.15
2022-10-22T10:03:00.414Z,46.28
2022-10-22T10:06:00.177Z,57.25
2022-10-22T10:08:49.463Z,49.55
2022-10-22T10:11:48.869Z,41.13
2022-10-22T10:14:41.217Z,56.95
2022-10-22T10:17:30.191Z,43.03
2022-10-22T10:20:27.514Z,45.05
2022-10-22T10:23:28.699Z,40.00
2022-10-22T10:26:37.558Z,41.75
2022-10-22T10:29:50.676Z,42.42
2022-10-22T10:33:05.510Z,50.80
2022-10-22T10:36:03.861Z,42.35
2022-10-22T10:39:10.140Z,44.33
2022-10-22T10:42:12.663Z,53.22
2022-10-22T10:45:30.157Z,58.00
2022-10-22T10:48:46.488Z,47.90
2022-10-22T10:52:01.437Z,42.25
2022-10-22T10:55:09.483Z,43.42
2022-10-22T10:58:30.627Z,55.95
2022-10-22T11:01:30.936Z,43.47
2022-10-22T11:04:47.079Z,47.65
2022-10-22T11:08:00.768Z,51.88
2022-10-22T11:11:06.294Z,35.65
2022-10-22T11:14:11.274Z,55.47
2022-10-22T11:17:15.059Z,46.35
2022-10-22T11:20:32.827Z,49.22
2022-10-22T11:23:38.812Z,47.47
2022-10-22T11:26:36.105Z,40.33
2022-10-22T11:29:32.842Z,51.08
2022-10-22T11:32:20.957Z,45.75
2022-10-22T11:35:12.851Z,51.55
2022-10-22T11:37:59.233Z,43.20
2022-10-22T11:40:59.614Z,50.17
2022-10-22T11:44:03.513Z,45.78
2022-10-22T11:47:09.067Z,44.45
2022-10-22T11:50:16.483Z,51.08
2022-10-22T11:53:13.044Z,50.15
2022-10-22T11:56:09.915Z,47.78
2022-10-22T11:58:55.736Z,57.85
2022-10-22T12:01:47.792Z,57.25
2022-10-22T12:04:42.017Z,47.40
2022-10-22T12:07:54.861Z,45.88
2022-10-22T12:11:02.827Z,47.83
2022-10-22T12:14:13.471Z,48.03
2022-10-22T12:17:05.416Z,49.10
2022-10-22T12:20:02.120Z,53.53
2022-10-22T12:22:48.733Z,43.70
2022-10-22T12:25:36.534Z,57.72
2022-10-22T12:28:22.905Z,48.60
2022-10-22T12:31:25.246Z,61.72
2022-10-22T12:34:16.225Z,55.08
2022-10-22T12:37:05.082Z,45.38
2022-10-22T12:39:51.538Z,49.95
2022-10-22T12:42:38.344Z,50.20
2022-10-22T12:45:27.211Z,46.50
2022-10-22T12:48:29.376Z,42.75
2022-10-22T12:51:20.442Z,53.38
2022-10-22T12:54:28.357Z,46.00
2022-10-22T12:57:18.396Z,46.80
2022-10-22T13:00:04.559Z,49.33
2022-10-22T13:02:50.631Z,53.20
2022-10-22T13:05:39.229Z,51.08
2022-10-22T13:08:29.141Z,47.10
2022-10-22T13:11:21.010Z,44.17
2022-10-22T13:14:21.875Z,45.10
2022-10-22T13:17:07.293Z,52.08
2022-10-22T13:19:53.042Z,49.08
2022-10-22T13:22:41.125Z,41.88
2022-10-22T13:25:33.870Z,41.25
2022-10-22T13:28:22.085Z,49.30
2022-10-22T13:31:36.294Z,43.50
2022-10-22T13:34:25.654Z,51.72
2022-10-22T13:37:11.520Z,41.47
2022-10-22T13:39:57.282Z,54.00
2022-10-22T13:42:43.417Z,50.05
2022-10-22T13:45:29.210Z,37.92
2022-10-22T13:48:22.039Z,46.53
2022-10-22T13:51:15.668Z,58.70
2022-10-22T13:56:47.478Z,46.92
2022-10-22T13:59:33.154Z,38.40
2022-10-22T14:02:19.975Z,46.83
2022-10-22T14:05:09.343Z,38.28
2022-10-22T14:07:55.239Z,53.13
2022-10-22T14:10:40.903Z,46.78
2022-10-22T14:13:26.810Z,38.55
2022-10-22T14:16:21.520Z,55.47
2022-10-22T14:19:11.254Z,62.90
2022-10-22T14:21:57.292Z,45.20
2022-10-22T14:24:43.314Z,36.40
2022-10-22T14:27:29.149Z,41.20
2022-10-22T14:30:24.866Z,52.50
2022-10-22T14:33:18.062Z,43.45
2022-10-22T14:36:03.879Z,46.55
2022-10-22T14:38:49.728Z,49.10
2022-10-22T14:41:36.611Z,42.78
2022-10-22T14:44:22.074Z,40.95
2022-10-22T14:47:08.104Z,43.38
2022-10-22T14:49:53.618Z,38.00
2022-10-22T14:52:39.635Z,41.67
2022-10-22T14:55:27.131Z,36.03
2022-10-22T14:58:13.578Z,44.60
2022-10-22T15:01:02.297Z,39.25
2022-10-22T15:03:47.907Z,39.90
2022-10-22T15:06:33.761Z,37.08
2022-10-22T15:09:19.712Z,37.63
2022-10-22T15:12:05.551Z,41.10
2022-10-22T15:14:51.148Z,36.28
2022-10-22T15:17:38.233Z,30.48
2022-10-22T15:20:24.089Z,38.85
2022-10-22T15:23:09.682Z,35.17
2022-10-22T15:25:56.129Z,36.20
2022-10-22T15:28:42.502Z,41.00
2022-10-22T15:31:47.184Z,37.28
2022-10-22T15:34:34.601Z,31.23
2022-10-22T15:37:20.802Z,35.22
2022-10-22T15:40:08.628Z,39.45
2022-10-22T15:42:54.012Z,46.30
2022-10-22T15:45:40.126Z,32.10
2022-10-22T15:48:25.930Z,36.35
2022-10-22T15:51:14.330Z,30.77
2022-10-22T15:53:59.901Z,27.50
2022-10-22T15:56:45.426Z,24.70
2022-10-22T15:59:31.463Z,30.73
2022-10-22T16:02:17.001Z,42.67
2022-10-22T16:05:02.646Z,41.15
2022-10-22T16:07:48.389Z,33.47
2022-10-22T16:10:34.186Z,40.13
2022-10-22T16:13:21.654Z,41.63
2022-10-22T16:16:10.449Z,45.75
2022-10-22T16:18:56.602Z,40.35
2022-10-22T16:21:42.461Z,39.97
2022-10-22T16:24:28.034Z,40.13
2022-10-22T16:27:13.738Z,36.83
2022-10-22T16:29:59.387Z,44.47
2022-10-22T16:32:45.117Z,41.95
2022-10-22T16:35:31.082Z,43.72
2022-10-22T16:38:17.435Z,42.17
2022-10-22T16:41:14.098Z,52.22
2022-10-22T16:44:02.322Z,43.75
2022-10-22T16:46:48.347Z,48.72
2022-10-22T16:49:34.138Z,49.47
2022-10-22T16:52:19.936Z,44.97
2022-10-22T16:55:06.067Z,39.60
2022-10-22T16:57:53.346Z,51.22
2022-10-22T17:00:39.125Z,46.22
2022-10-22T17:03:27.536Z,53.22
2022-10-22T17:06:14.794Z,47.65
2022-10-22T17:09:00.830Z,52.97
2022-10-22T17:11:47.388Z,49.42
2022-10-22T17:14:32.941Z,60.75
2022-10-22T17:17:18.606Z,56.30
2022-10-22T17:20:05.323Z,58.58
2022-10-22T17:22:50.947Z,51.45
2022-10-22T17:25:43.615Z,50.40
2022-10-22T17:28:30.204Z,46.95
2022-10-22T17:31:22.993Z,60.85
2022-10-22T17:34:14.683Z,54.05
2022-10-22T17:37:00.271Z,64.68
2022-10-22T17:39:46.377Z,58.92
2022-10-22T17:42:32.210Z,52.45
2022-10-22T17:45:17.895Z,58.38
2022-10-22T17:48:03.586Z,56.65
2022-10-22T17:50:51.443Z,59.75
2022-10-22T17:53:48.118Z,61.30
2022-10-22T17:56:33.729Z,52.67
2022-10-22T17:59:19.894Z,65.68
2022-10-22T18:02:05.538Z,64.57
2022-10-22T18:04:52.446Z,63.67
2022-10-22T18:07:38.990Z,60.35
2022-10-22T18:10:25.097Z,69.25
2022-10-22T18:13:13.633Z,63.25
2022-10-22T18:15:59.086Z,62.30
2022-10-22T18:18:49.326Z,61.80
2022-10-22T18:21:35.233Z,69.07
2022-10-22T18:24:20.833Z,53.20
2022-10-22T18:27:06.677Z,65.10
2022-10-22T18:29:52.245Z,67.93
2022-10-22T18:32:38.179Z,67.53
2022-10-22T18:35:23.733Z,68.38
2022-10-22T18:38:13.190Z,62.72
2022-10-22T18:40:59.019Z,66.43
2022-10-22T18:43:44.592Z,53.92
2022-10-22T18:46:32.307Z,60.58
2022-10-22T18:49:19.506Z,74.47
2022-10-22T18:52:05.339Z,55.63
2022-10-22T18:54:50.854Z,57.05
2022-10-22T18:57:36.359Z,59.03
2022-10-22T19:00:22.278Z,63.15
2022-10-22T19:03:10.679Z,54.40
2022-10-22T19:05:59.942Z,57.28
2022-10-22T19:08:51.292Z,64.28
2022-10-22T19:11:37.245Z,56.15
2022-10-22T19:14:22.986Z,60.85
2022-10-22T19:17:08.681Z,61.47
2022-10-22T19:19:54.210Z,53.50
2022-10-22T19:22:39.897Z,57.35
2022-10-22T19:25:25.998Z,64.22
2022-10-22T19:28:11.463Z,58.05
2022-10-22T19:30:58.715Z,64.65
2022-10-22T19:33:44.708Z,60.60
2022-10-22T19:36:32.795Z,59.63
2022-10-22T19:39:18.864Z,58.92
2022-10-22T19:42:04.592Z,58.15
2022-10-22T19:44:49.976Z,64.57
2022-10-22T19:47:36.335Z,56.92
2022-10-22T19:50:21.765Z,57.55
2022-10-22T19:53:07.442Z,55.90
2022-10-22T19:55:53.844Z,61.90
2022-10-22T19:58:39.562Z,60.22
2022-10-22T20:01:26.212Z,68.45
2022-10-22T20:04:16.509Z,55.42
2022-10-22T20:07:02.647Z,59.42
2022-10-22T20:09:48.063Z,74.28
2022-10-22T20:12:33.822Z,56.88
2022-10-22T20:15:21.470Z,67.18
2022-10-22T20:18:07.155Z,57.47
2022-10-22T20:20:53.050Z,67.78
2022-10-22T20:23:38.310Z,57.58
2022-10-22T20:26:27.792Z,63.40
2022-10-22T20:29:15.606Z,60.33
2022-10-22T20:32:02.389Z,63.72
2022-10-22T20:34:49.992Z,62.17
2022-10-22T20:37:35.585Z,57.72
2022-10-22T20:40:21.182Z,63.00
2022-10-22T20:43:09.502Z,65.68
2022-10-22T20:45:57.494Z,60.47
2022-10-22T20:48:43.218Z,57.15
2022-10-22T20:51:29.313Z,62.53
2022-10-22T20:54:16.157Z,64.93
2022-10-22T20:57:01.972Z,62.50
2022-10-22T20:59:47.463Z,61.75
2022-10-22T21:02:34.408Z,64.65
2022-10-22T21:05:20.365Z,65.53
2022-10-22T21:08:06.297Z,58.92
2022-10-22T21:10:52.256Z,58.35
2022-10-22T21:13:37.757Z,63.92
2022-10-22T21:16:23.469Z,69.90
2022-10-22T21:19:09.281Z,61.38
2022-10-22T21:21:55.164Z,63.08
2022-10-22T21:24:41.216Z,59.92
2022-10-22T21:27:26.518Z,68.28
2022-10-22T21:30:12.934Z,66.30
2022-10-22T21:32:58.345Z,63.05
2022-10-22T21:35:52.954Z,61.30
2022-10-22T21:38:38.708Z,58.63
2022-10-22T21:41:24.891Z,58.45
2022-10-22T21:44:10.732Z,57.95
2022-10-22T21:46:56.121Z,60.85
2022-10-22T21:49:42.278Z,51.90
2022-10-22T21:52:27.686Z,66.95
2022-10-22T21:55:13.589Z,57.95
2022-10-22T21:57:59.267Z,58.05
2022-10-22T22:00:54.453Z,52.20
2022-10-22T22:03:45.620Z,49.80
2022-10-22T22:06:33.424Z,56.00
2022-10-22T22:09:20.214Z,58.65
2022-10-22T22:12:06.303Z,58.33
2022-10-22T22:14:51.606Z,52.17
2022-10-22T22:17:37.324Z,57.65
2022-10-22T22:20:23.335Z,57.13
2022-10-22T22:23:08.694Z,64.75
2022-10-22T22:25:58.935Z,58.28
2022-10-22T22:28:44.815Z,58.30
2022-10-22T22:31:32.806Z,56.95
2022-10-22T22:34:18.581Z,55.10
2022-10-22T22:37:04.283Z,48.60
2022-10-22T22:39:49.813Z,61.40
2022-10-22T22:42:35.637Z,64.88
2022-10-22T22:45:20.957Z,57.25
2022-10-22T22:48:06.846Z,49.45
2022-10-22T22:50:52.745Z,55.22
2022-10-22T22:53:38.106Z,54.67
2022-10-22T22:56:26.814Z,53.08
2022-10-22T22:59:12.558Z,54.45
2022-10-22T23:01:58.389Z,58.85
2022-10-22T23:04:44.381Z,55.38
2022-10-22T23:07:29.972Z,62.10
2022-10-22T23:10:15.589Z,57.13
2022-10-22T23:13:01.289Z,54.38
2022-10-22T23:15:46.871Z,57.05
2022-10-22T23:18:32.743Z,55.90
2022-10-22T23:21:20.939Z,55.63
2022-10-22T23:24:11.138Z,50.50
2022-10-22T23:27:01.771Z,48.15
2022-10-22T23:29:47.646Z,50.38
2022-10-22T23:32:33.173Z,58.72
2022-10-22T23:35:18.907Z,56.10
2022-10-22T23:38:04.931Z,52.28
2022-10-22T23:40:57.341Z,48.20
2022-10-22T23:43:43.106Z,49.67
2022-10-22T23:46:28.948Z,50.88
2022-10-22T23:49:15.231Z,52.45
2022-10-22T23:52:01.136Z,52.60
2022-10-22T23:54:48.302Z,51.58
2022-10-22T23:57:33.984Z,46.58
